地図

経路データ

SID SEASON NUMBER BASIN SUBBASIN NAME ISO_TIME NATURE LAT LON WMO_WIND WMO_PRES WMO_AGENCY TRACK_TYPE DIST2LAND LANDFALL IFLAG USA_AGENCY USA_ATCF_ID USA_LAT USA_LON USA_RECORD USA_STATUS USA_WIND USA_PRES USA_SSHS USA_R34_NE USA_R34_SE USA_R34_SW USA_R34_NW USA_R50_NE USA_R50_SE USA_R50_SW USA_R50_NW USA_R64_NE USA_R64_SE USA_R64_SW USA_R64_NW USA_POCI USA_ROCI USA_RMW USA_EYE TOKYO_LAT TOKYO_LON TOKYO_GRADE TOKYO_WIND TOKYO_PRES TOKYO_R50_DIR TOKYO_R50_LONG TOKYO_R50_SHORT TOKYO_R30_DIR TOKYO_R30_LONG TOKYO_R30_SHORT TOKYO_LAND CMA_LAT CMA_LON CMA_CAT CMA_WIND CMA_PRES HKO_LAT HKO_LON HKO_CAT HKO_WIND HKO_PRES NEWDELHI_LAT NEWDELHI_LON NEWDELHI_GRADE NEWDELHI_WIND NEWDELHI_PRES NEWDELHI_CI NEWDELHI_DP NEWDELHI_POCI REUNION_LAT REUNION_LON REUNION_TYPE REUNION_WIND REUNION_PRES REUNION_TNUM REUNION_CI REUNION_RMW REUNION_R34_NE REUNION_R34_SE REUNION_R34_SW REUNION_R34_NW REUNION_R50_NE REUNION_R50_SE REUNION_R50_SW REUNION_R50_NW REUNION_R64_NE REUNION_R64_SE REUNION_R64_SW REUNION_R64_NW BOM_LAT BOM_LON BOM_TYPE BOM_WIND BOM_PRES BOM_TNUM BOM_CI BOM_RMW BOM_R34_NE BOM_R34_SE BOM_R34_SW BOM_R34_NW BOM_R50_NE BOM_R50_SE BOM_R50_SW BOM_R50_NW BOM_R64_NE BOM_R64_SE BOM_R64_SW BOM_R64_NW BOM_ROCI BOM_POCI BOM_EYE BOM_POS_METHOD BOM_PRES_METHOD NADI_LAT NADI_LON NADI_CAT NADI_WIND NADI_PRES WELLINGTON_LAT WELLINGTON_LON WELLINGTON_WIND WELLINGTON_PRES DS824_LAT DS824_LON DS824_STAGE DS824_WIND DS824_PRES TD9636_LAT TD9636_LON TD9636_STAGE TD9636_WIND TD9636_PRES TD9635_LAT TD9635_LON TD9635_WIND TD9635_PRES TD9635_ROCI NEUMANN_LAT NEUMANN_LON NEUMANN_CLASS NEUMANN_WIND NEUMANN_PRES MLC_LAT MLC_LON MLC_CLASS MLC_WIND MLC_PRES USA_GUST BOM_GUST BOM_GUST_PER REUNION_GUST REUNION_GUST_PER USA_SEAHGT USA_SEARAD_NE USA_SEARAD_SE USA_SEARAD_SW USA_SEARAD_NW STORM_SPEED STORM_DIR
1998133N04086 1998 28 NI BB NOT_NAMED 1998-05-13 00:00:00 NR 4.00000 85.5000 main 505 491 O_____________ jtwc_io IO011998 4.00000 85.5000 15 -1 14 22
1998133N04086 1998 28 NI BB NOT_NAMED 1998-05-13 03:00:00 NR 4.62253 85.7574 main 501 490 P_____________ IO011998 4.62253 85.7574 17 -1 13 23
1998133N04086 1998 28 NI BB NOT_NAMED 1998-05-13 06:00:00 NR 5.20000 86.0000 main 496 492 O_____________ jtwc_io IO011998 5.20000 86.0000 20 -1 12 23
1998133N04086 1998 28 NI BB NOT_NAMED 1998-05-13 09:00:00 NR 5.70749 86.2150 main 497 494 P_____________ IO011998 5.70749 86.2150 20 -1 11 22
1998133N04086 1998 28 NI BB NOT_NAMED 1998-05-13 12:00:00 NR 6.20000 86.4000 main 505 503 O_____________ jtwc_io IO011998 6.20000 86.4000 20 -1 11 19
1998133N04086 1998 28 NI BB NOT_NAMED 1998-05-13 15:00:00 NR 6.75750 86.5874 main 519 519 P_____________ IO011998 6.75750 86.5874 20 -1 11 15
1998133N04086 1998 28 NI BB NOT_NAMED 1998-05-13 18:00:00 NR 7.30000 86.7000 main 531 531 O_____________ jtwc_io IO011998 7.30000 86.7000 20 -1 10 7
1998133N04086 1998 28 NI BB NOT_NAMED 1998-05-13 21:00:00 NR 7.77996 86.7100 main 537 532 P_____________ IO011998 7.77996 86.7100 20 -1 9 354
1998133N04086 1998 28 NI BB NOT_NAMED 1998-05-14 00:00:00 NR 8.20000 86.6000 main 533 516 O_____________ jtwc_io IO011998 8.20000 86.6000 20 -1 9 339
1998133N04086 1998 28 NI BB NOT_NAMED 1998-05-14 03:00:00 NR 8.58746 86.4025 main 519 495 P_____________ IO011998 8.58746 86.4025 20 -1 9 325
1998133N04086 1998 28 NI BB NOT_NAMED 1998-05-14 06:00:00 NR 8.90000 86.1000 main 495 471 O_____________ jtwc_io IO011998 8.90000 86.1000 20 -1 9 310
1998133N04086 1998 28 NI BB NOT_NAMED 1998-05-14 09:00:00 NR 9.14499 85.7300 main 461 429 P_____________ IO011998 9.14499 85.7300 20 -1 9 297
1998133N04086 1998 28 NI BB NOT_NAMED 1998-05-14 12:00:00 NR 9.30000 85.3000 main 429 395 O_____________ jtwc_io IO011998 9.30000 85.3000 20 -1 9 285
1998133N04086 1998 28 NI BB NOT_NAMED 1998-05-14 15:00:00 NR 9.37250 84.8499 main 385 345 P_____________ IO011998 9.37250 84.8499 20 -1 9 276
1998133N04086 1998 28 NI BB NOT_NAMED 1998-05-14 18:00:00 NR 9.40000 84.4000 main 345 307 O_____________ jtwc_io IO011998 9.40000 84.4000 20 -1 8 275
1998133N04086 1998 28 NI BB NOT_NAMED 1998-05-14 21:00:00 NR 9.44234 84.0149 main 307 271 P_____________ IO011998 9.44234 84.0149 20 -1 8 277
1998133N04086 1998 28 NI BB NOT_NAMED 1998-05-15 00:00:00 NR 9.50000 83.6000 main 271 230 O_____________ jtwc_io IO011998 9.50000 83.6000 20 -1 10 279
1998133N04086 1998 28 NI BB NOT_NAMED 1998-05-15 03:00:00 NR 9.59254 83.0650 main 230 181 P_____________ IO011998 9.59254 83.0650 20 -1 11 280
1998133N04086 1998 28 NI BB NOT_NAMED 1998-05-15 06:00:00 NR 9.70000 82.5000 main 181 143 O_____________ jtwc_io IO011998 9.70000 82.5000 20 -1 11 281
1998133N04086 1998 28 NI BB NOT_NAMED 1998-05-15 09:00:00 NR 9.79992 81.9850 main 143 102 P_____________ IO011998 9.79992 81.9850 20 -1 10 281
1998133N04086 1998 28 NI BB NOT_NAMED 1998-05-15 12:00:00 NR 9.90000 81.5000 main 102 78 O_____________ jtwc_io IO011998 9.90000 81.5000 20 -1 10 281
1998133N04086 1998 28 NI BB NOT_NAMED 1998-05-15 15:00:00 NR 9.98504 80.9975 main 78 55 P_____________ IO011998 9.98504 80.9975 22 -1 9 283
1998133N04086 1998 28 NI BB NOT_NAMED 1998-05-15 18:00:00 NR 10.1000 80.6000 main 55 49 O_____________ jtwc_io IO011998 10.1000 80.6000 25 -1 7 295
1998133N04086 1998 28 NI BB NOT_NAMED 1998-05-15 21:00:00 NR 10.2774 80.3675 main 54 43 P_____________ IO011998 10.2774 80.3675 25 -1 5 324
1998133N04086 1998 28 NI BB NOT_NAMED 1998-05-16 00:00:00 NR 10.5000 80.3000 main 43 43 O_____________ jtwc_io IO011998 10.5000 80.3000 25 -1 5 348
1998133N04086 1998 28 NI BB NOT_NAMED 1998-05-16 03:00:00 NR 10.7497 80.2726 main 43 43 P_____________ IO011998 10.7497 80.2726 25 -1 5 22
1998133N04086 1998 28 NI BB NOT_NAMED 1998-05-16 06:00:00 NR 11.0000 80.5000 main 65 65 O_____________ jtwc_io IO011998 11.0000 80.5000 25 -1 9 62
1998133N04086 1998 28 NI BB NOT_NAMED 1998-05-16 09:00:00 NR 11.1776 81.0878 main 130 130 P_____________ IO011998 11.1776 81.0878 25 -1 14 74
1998133N04086 1998 28 NI BB NOT_NAMED 1998-05-16 12:00:00 NR 11.4000 81.9000 main 219 219 O_____________ jtwc_io IO011998 11.4000 81.9000 25 -1 17 70
1998133N04086 1998 28 NI BB NOT_NAMED 1998-05-16 15:00:00 NR 11.7776 82.7498 main 283 283 P_____________ IO011998 11.7776 82.7498 25 -1 19 64
1998133N04086 1998 28 NI BB NOT_NAMED 1998-05-16 18:00:00 NR 12.2000 83.6000 main 371 371 O_____________ jtwc_io IO011998 12.2000 83.6000 25 -1 17 63
1998133N04086 1998 28 NI BB NOT_NAMED 1998-05-16 21:00:00 NR 12.5572 84.3303 main 440 440 P_____________ IO011998 12.5572 84.3303 25 -1 15 63
1998133N04086 1998 28 NI BB NOT_NAMED 1998-05-17 00:00:00 NR 12.9000 85.0000 main 505 503 O_____________ jtwc_io IO011998 12.9000 85.0000 25 -1 15 62
1998133N04086 1998 28 NI BB NOT_NAMED 1998-05-17 03:00:00 NR 13.2650 85.6949 main 519 519 P_____________ IO011998 13.2650 85.6949 25 -1 15 61
1998133N04086 1998 28 NI BB NOT_NAMED 1998-05-17 06:00:00 NR 13.6000 86.3000 main 545 545 O_____________ jtwc_io IO011998 13.6000 86.3000 25 -1 12 59
1998133N04086 1998 28 NI BB NOT_NAMED 1998-05-17 09:00:00 NR 13.8723 86.7527 main 565 564 P_____________ IO011998 13.8723 86.7527 25 -1 11 59
1998133N04086 1998 28 NI BB NOT_NAMED 1998-05-17 12:00:00 NR 14.1800 87.2800 25 998 newdelhi main 572 569 O___O_________ jtwc_io IO011998 14.1000 87.1000 25 -1 14.5000 88.0000 D 25 998 1.50000 4 11 57
1998133N04086 1998 28 NI BB NOT_NAMED 1998-05-17 15:00:00 NR 14.4734 87.7054 main 573 572 P___P_________ IO011998 14.2924 87.4077 25 -1 14.8354 88.3008 D 25 998 4 9 54
1998133N04086 1998 28 NI BB NOT_NAMED 1998-05-17 18:00:00 NR 14.7143 88.0429 25 998 newdelhi main 579 578 O___O_________ jtwc_io IO011998 14.5000 87.7000 25 -1 15.0000 88.5000 D 25 998 1.50000 4 7 57
1998133N04086 1998 28 NI BB NOT_NAMED 1998-05-17 21:00:00 NR 14.8509 88.2958 main 586 586 P___P_________ IO011998 14.7700 88.0575 25 -1 14.9318 88.5342 D 25 998 4 5 50
1998133N04086 1998 28 NI BB NOT_NAMED 1998-05-18 00:00:00 NR 15.0500 88.4500 25 998 newdelhi main 586 554 O___O_________ jtwc_io IO011998 15.1000 88.4000 25 -1 15.0000 88.5000 D 25 998 1.50000 4 7 24
1998133N04086 1998 28 NI BB NOT_NAMED 1998-05-18 03:00:00 NR 15.4812 88.5863 25 998 newdelhi main 554 519 P___O_________ IO011998 15.4624 88.6726 27 -1 15.5000 88.5000 D 25 998 1.50000 4 9 15
1998133N04086 1998 28 NI BB NOT_NAMED 1998-05-18 06:00:00 NR 15.9500 88.7000 30 996 newdelhi main 509 487 O___O_________ jtwc_io IO011998 15.9000 88.9000 30 -1 16.0000 88.5000 DD 30 996 2.00000 6 11 25
1998133N04086 1998 28 NI BB NOT_NAMED 1998-05-18 09:00:00 NR 16.4675 89.0575 35 992 newdelhi main 484 461 P___O_________ IO011998 16.4350 89.1150 30 -1 16.5000 89.0000 CS 35 992 2.50000 8 13 33
1998133N04086 1998 28 NI BB NOT_NAMED 1998-05-18 12:00:00 NR 17.0000 89.4000 35 994 newdelhi main 461 429 O___O_________ jtwc_io IO011998 17.0000 89.3000 30 -1 17.0000 89.5000 CS 35 994 2.50000 8 11 23
1998133N04086 1998 28 NI BB NOT_NAMED 1998-05-18 15:00:00 NR 17.4999 89.5096 main 429 390 P___P_________ IO011998 17.4999 89.4502 32 -1 17.4998 89.5690 CS 35 994 8 10 8
1998133N04086 1998 28 NI BB NOT_NAMED 1998-05-18 18:00:00 NR 18.0000 89.5500 35 994 newdelhi main 398 352 O___O_________ jtwc_io IO011998 18.0000 89.6000 35 0 18.0000 89.5000 CS 35 994 2.50000 8 10 12
1998133N04086 1998 28 NI BB NOT_NAMED 1998-05-18 21:00:00 NR 18.5212 89.7287 main 352 302 P___P_________ IO011998 18.5425 89.7925 37 0 18.4999 89.6649 CS 35 992 9 11 22
1998133N04086 1998 28 NI BB NOT_NAMED 1998-05-19 00:00:00 NR 19.0500 90.0000 35 990 newdelhi main 294 246 O___O_________ jtwc_io IO011998 19.1000 90.0000 40 0 19.0000 90.0000 CS 35 990 3.00000 10 12 29
1998133N04086 1998 28 NI BB NOT_NAMED 1998-05-19 03:00:00 NR 19.5900 90.3500 35 990 newdelhi main 242 191 P___O_________ IO011998 19.6800 90.2000 42 0 19.5000 90.5000 CS 35 990 3.00000 10 11 22
1998133N04086 1998 28 NI BB NOT_NAMED 1998-05-19 06:00:00 NR 20.1000 90.4500 55 986 newdelhi main 192 159 O___O_________ jtwc_io IO011998 20.2000 90.4000 45 0 20.0000 90.5000 SCS 55 986 3.50000 14 9 11
1998133N04086 1998 28 NI BB NOT_NAMED 1998-05-19 09:00:00 NR 20.4518 90.5368 main 148 129 P___P_________ IO011998 20.6025 90.6076 50 0 20.3011 90.4661 SCS 55 981 14 6 17
1998133N04086 1998 28 NI BB NOT_NAMED 1998-05-19 12:00:00 NR 20.7000 90.6500 55 976 newdelhi main 133 118 O___O_________ jtwc_io IO011998 20.9000 90.8000 55 0 20.5000 90.5000 SCS 55 976 3.50000 14 6 30
1998133N04086 1998 28 NI BB NOT_NAMED 1998-05-19 15:00:00 NR 20.9288 90.8313 main 118 103 P___P_________ IO011998 21.1074 90.9502 57 0 20.7501 90.7124 SCS 57 975 16 6 40
1998133N04086 1998 28 NI BB NOT_NAMED 1998-05-19 18:00:00 NR 21.1500 91.0500 60 974 newdelhi main 89 73 O___O_________ jtwc_io IO011998 21.3000 91.1000 60 0 21.0000 91.0000 SCS 60 974 3.50000 18 6 36
1998133N04086 1998 28 NI BB NOT_NAMED 1998-05-19 21:00:00 NR 21.3915 91.1914 main 73 42 P___P_________ IO011998 21.5850 91.2850 65 1 21.1980 91.0977 SCS 60 973 18 7 37
1998133N04086 1998 28 NI BB NOT_NAMED 1998-05-20 00:00:00 NR 21.7000 91.5000 60 972 newdelhi main 42 0 O___O_________ jtwc_io IO011998 21.9000 91.5000 70 1 21.5000 91.5000 SCS 60 972 3.50000 18 11 51
1998133N04086 1998 28 NI BB NOT_NAMED 1998-05-20 03:00:00 NR 22.0737 92.1066 newdelhi main 0 0 P___O_________ IO011998 22.1473 91.7132 65 1 22.0000 92.5000 DD 0.00000 12 47
1998133N04086 1998 28 NI BB NOT_NAMED 1998-05-20 06:00:00 NR 22.5067 92.4208 main 0 0 O___P_________ jtwc_io IO011998 22.5000 92.0000 60 0 22.5156 92.9819 DD 11 23
1998133N04086 1998 28 NI BB NOT_NAMED 1998-05-20 09:00:00 NR 23.1093 92.5750 main 0 0 P___P_________ IO011998 23.1576 92.4190 50 0 23.0126 92.8869 DD 13 16
1998133N04086 1998 28 NI BB NOT_NAMED 1998-05-20 12:00:00 NR 23.7250 92.8000 newdelhi main 0 0 O___O_________ jtwc_io IO011998 23.8000 92.9000 40 0 23.5000 92.5000 D 0.00000 13 35
1998133N04086 1998 28 NI BB NOT_NAMED 1998-05-20 15:00:00 NR 24.1476 93.3606 main 0 0 P_____________ IO011998 24.1476 93.3606 32 -1 D 11 58
1998133N04086 1998 28 NI BB NOT_NAMED 1998-05-20 18:00:00 NR 24.3000 93.8000 main 0 O_____________ jtwc_io IO011998 24.3000 93.8000 25 -1 D 9 69

IBTrACS Databaseについて

本データベースは、米国NOAAが公開する1842年以降の世界の熱帯低気圧のベストトラックデータアーカイブInternational Best Track Archive for Climate Stewardship (IBTrACS)を、ウェブで閲覧しやすい形式に変換したものです。

最終更新日:2021-10-08